Time;durP1;ratioP1;P1;durP2;ratioP2;P2;SDS_P1;SDS_P2;PMS_P1;PMS_P2;Temp;Humidity;BMP_temperature;BMP_pressure;BME280_temperature;BME280_humidity;BME280_pressure;Samples;Min_cycle;Max_cycle;Signal;HPM_P1;HPM_P2
2021/12/03 00:00:32;;;;;;;6.80;3.70;;;2.80;99.90;;;;;;4970711;28;20277;-63
2021/12/03 00:03:01;;;;;;;5.73;3.20;;;2.80;99.90;;;;;;4971327;28;20323;-63
2021/12/03 00:05:28;;;;;;;6.83;3.53;;;2.80;99.90;;;;;;4971242;28;20648;-63
2021/12/03 00:07:55;;;;;;;4.63;3.33;;;2.80;99.90;;;;;;4970286;28;20235;-62
2021/12/03 00:10:24;;;;;;;7.97;3.53;;;2.80;99.90;;;;;;4971500;28;20263;-63
2021/12/03 00:12:52;;;;;;;4.87;2.83;;;2.80;99.90;;;;;;4971416;28;20678;-64
2021/12/03 00:15:23;;;;;;;5.93;3.27;;;2.80;99.90;;;;;;4957876;28;20284;-64
2021/12/03 00:17:50;;;;;;;4.17;2.67;;;2.80;99.90;;;;;;4970539;28;20556;-64
2021/12/03 00:20:19;;;;;;;6.97;3.53;;;2.80;99.90;;;;;;4971417;28;20697;-64
2021/12/03 00:22:50;;;;;;;5.67;3.70;;;2.70;99.90;;;;;;4971006;28;20247;-65
2021/12/03 00:25:17;;;;;;;6.87;3.20;;;2.70;99.90;;;;;;4972265;28;20721;-63
2021/12/03 00:27:44;;;;;;;6.70;3.57;;;2.70;99.90;;;;;;4974926;28;20705;-64
2021/12/03 00:30:13;;;;;;;7.50;3.53;;;2.60;99.90;;;;;;4974378;28;20701;-64
2021/12/03 00:32:41;;;;;;;7.90;3.83;;;2.60;99.90;;;;;;4974676;28;20291;-63
2021/12/03 00:35:09;;;;;;;6.03;3.33;;;2.60;99.90;;;;;;4974477;28;20258;-63
2021/12/03 00:37:39;;;;;;;7.20;3.40;;;2.60;99.90;;;;;;4974538;28;20583;-64
2021/12/03 00:40:07;;;;;;;5.77;3.37;;;2.60;99.90;;;;;;4974660;28;20205;-64
2021/12/03 00:42:34;;;;;;;5.53;3.23;;;2.60;99.90;;;;;;4988816;28;20205;-64
2021/12/03 00:45:02;;;;;;;6.03;3.30;;;2.60;99.90;;;;;;4936298;28;1132541;-62
2021/12/03 00:47:29;;;;;;;8.13;3.83;;;2.60;99.90;;;;;;4975680;28;20228;-65
2021/12/03 00:49:56;;;;;;;5.57;3.50;;;2.60;99.90;;;;;;4976092;28;20327;-64
2021/12/03 00:52:23;;;;;;;7.47;3.17;;;2.60;99.90;;;;;;4975077;28;20229;-64
2021/12/03 00:54:52;;;;;;;7.17;3.60;;;2.60;99.90;;;;;;4975361;28;20292;-64
2021/12/03 00:57:19;;;;;;;5.37;3.17;;;2.60;99.90;;;;;;4975336;28;20315;-64
2021/12/03 00:59:45;;;;;;;6.90;3.77;;;2.60;99.90;;;;;;4974791;28;20319;-64
2021/12/03 01:02:12;;;;;;;6.73;4.10;;;2.60;99.90;;;;;;4974755;28;20299;-63
2021/12/03 01:04:39;;;;;;;6.90;3.40;;;2.60;99.90;;;;;;4975039;28;20247;-63
2021/12/03 01:07:07;;;;;;;5.90;3.87;;;2.60;99.90;;;;;;4975398;28;20299;-62
2021/12/03 01:09:33;;;;;;;5.13;2.83;;;2.20;99.90;;;;;;4974835;28;20644;-64
2021/12/03 01:12:02;;;;;;;5.53;3.40;;;2.50;99.90;;;;;;4963858;28;20633;-62
2021/12/03 01:14:29;;;;;;;5.87;3.50;;;2.40;99.90;;;;;;4975222;28;20307;-64
2021/12/03 01:16:56;;;;;;;6.87;3.63;;;2.40;99.90;;;;;;4975024;28;20223;-63
2021/12/03 01:19:23;;;;;;;7.70;3.63;;;2.40;99.90;;;;;;4975666;28;20209;-64
2021/12/03 01:21:50;;;;;;;6.57;3.87;;;2.40;99.90;;;;;;4974991;28;20236;-64
2021/12/03 01:24:18;;;;;;;6.93;3.60;;;2.40;99.90;;;;;;4975326;28;20264;-63
2021/12/03 01:26:45;;;;;;;4.20;2.90;;;2.40;99.90;;;;;;4974779;28;20295;-63
2021/12/03 01:29:14;;;;;;;5.50;3.43;;;2.40;99.90;;;;;;4974525;28;20293;-63
2021/12/03 01:31:41;;;;;;;7.03;3.20;;;2.40;99.90;;;;;;4975180;28;20670;-62
2021/12/03 01:34:08;;;;;;;5.40;3.30;;;2.40;99.90;;;;;;4974751;28;20213;-63
2021/12/03 01:36:35;;;;;;;6.23;3.67;;;2.40;99.90;;;;;;4974676;28;20240;-64
2021/12/03 01:39:03;;;;;;;5.73;3.30;;;2.40;99.90;;;;;;4974923;28;20291;-63
2021/12/03 01:41:32;;;;;;;6.73;3.67;;;2.40;99.90;;;;;;4974410;28;20628;-62
2021/12/03 01:44:02;;;;;;;5.27;3.70;;;2.40;99.90;;;;;;4974853;28;20609;-63
2021/12/03 01:46:31;;;;;;;9.07;4.70;;;2.50;99.90;;;;;;4974890;28;20243;-62
2021/12/03 01:48:58;;;;;;;9.37;4.93;;;2.50;99.90;;;;;;4974346;28;20522;-63
2021/12/03 01:51:26;;;;;;;6.73;3.27;;;2.50;99.90;;;;;;4974019;28;20680;-63
2021/12/03 01:53:54;;;;;;;7.10;3.43;;;2.50;99.90;;;;;;4975267;28;20666;-65
2021/12/03 01:56:22;;;;;;;5.70;3.77;;;2.50;99.90;;;;;;4975017;28;20594;-64
2021/12/03 01:58:51;;;;;;;8.17;2.87;;;2.50;99.90;;;;;;4965991;28;20722;-63
2021/12/03 02:01:21;;;;;;;7.77;4.00;;;2.50;99.90;;;;;;4974558;28;20729;-64
2021/12/03 02:03:53;;;;;;;6.80;3.33;;;2.50;99.90;;;;;;4975541;28;20239;-64
2021/12/03 02:06:22;;;;;;;8.27;4.40;;;2.50;99.90;;;;;;4974516;28;20196;-63
2021/12/03 02:08:49;;;;;;;6.73;3.57;;;2.50;99.90;;;;;;4974165;28;20322;-63
2021/12/03 02:11:16;;;;;;;5.70;3.70;;;2.50;99.90;;;;;;4973933;28;20296;-63
2021/12/03 02:13:44;;;;;;;7.63;3.90;;;2.60;99.90;;;;;;4975175;28;20244;-63
2021/12/03 02:16:12;;;;;;;9.00;3.90;;;2.50;99.90;;;;;;4973927;28;20208;-63
2021/12/03 02:18:39;;;;;;;7.20;3.57;;;2.50;99.90;;;;;;4974480;28;20296;-65
2021/12/03 02:21:08;;;;;;;9.70;4.77;;;2.50;99.90;;;;;;4973472;28;20734;-63
2021/12/03 02:23:37;;;;;;;5.87;3.57;;;2.50;99.90;;;;;;4972786;28;20321;-63
2021/12/03 02:26:05;;;;;;;7.60;3.80;;;2.50;99.90;;;;;;4974261;28;20299;-63
2021/12/03 02:28:34;;;;;;;7.33;3.37;;;2.50;99.90;;;;;;4973469;28;20272;-63
2021/12/03 02:31:03;;;;;;;6.70;4.03;;;2.50;99.90;;;;;;4974209;28;20208;-63
2021/12/03 02:33:30;;;;;;;7.80;4.10;;;2.50;99.90;;;;;;4974270;28;20724;-63
2021/12/03 02:35:57;;;;;;;5.87;3.50;;;2.40;99.90;;;;;;4973676;28;20247;-64
2021/12/03 02:38:26;;;;;;;8.07;4.10;;;2.40;99.90;;;;;;4973502;28;20216;-63
2021/12/03 02:40:54;;;;;;;6.13;3.53;;;2.40;99.90;;;;;;4974008;28;20279;-62
2021/12/03 02:43:21;;;;;;;8.00;4.07;;;2.30;99.90;;;;;;4973703;28;20228;-63
2021/12/03 02:45:50;;;;;;;7.13;4.07;;;2.30;99.90;;;;;;4973676;28;20329;-62
2021/12/03 02:48:18;;;;;;;5.17;3.20;;;2.20;99.90;;;;;;4973982;28;20303;-63
2021/12/03 02:50:45;;;;;;;6.83;4.13;;;2.20;99.90;;;;;;4973620;28;20309;-63
2021/12/03 02:53:12;;;;;;;5.80;3.70;;;2.20;99.90;;;;;;4961056;28;20292;-62
2021/12/03 02:55:41;;;;;;;6.40;4.20;;;2.20;99.90;;;;;;4974637;28;20287;-63
2021/12/03 02:58:08;;;;;;;7.50;4.00;;;2.10;99.90;;;;;;4973270;28;20204;-63
2021/12/03 03:00:37;;;;;;;6.07;4.03;;;2.10;99.90;;;;;;4973858;28;20236;-65
2021/12/03 03:03:04;;;;;;;6.57;3.43;;;2.10;99.90;;;;;;4973536;28;20295;-62
2021/12/03 03:05:31;;;;;;;7.63;3.90;;;2.00;99.90;;;;;;4973922;28;20244;-63
2021/12/03 03:07:59;;;;;;;8.10;3.73;;;2.10;99.90;;;;;;4974389;28;20253;-63
2021/12/03 03:10:30;;;;;;;6.37;3.83;;;2.10;99.90;;;;;;4973477;28;20789;-65
2021/12/03 03:13:00;;;;;;;6.63;3.93;;;2.00;99.90;;;;;;4972548;28;20208;-62
2021/12/03 03:15:28;;;;;;;6.77;3.70;;;1.90;99.90;;;;;;4974144;28;20307;-64
2021/12/03 03:17:56;;;;;;;7.63;4.17;;;1.90;99.90;;;;;;4973566;28;20263;-63
2021/12/03 03:20:23;;;;;;;6.60;4.33;;;1.90;99.90;;;;;;4973510;28;20228;-63
2021/12/03 03:22:50;;;;;;;5.73;4.07;;;1.90;99.90;;;;;;4973322;28;20682;-64
2021/12/03 03:25:20;;;;;;;6.57;4.03;;;1.90;99.90;;;;;;4973625;28;20696;-62
2021/12/03 03:27:47;;;;;;;4.93;3.53;;;1.80;99.90;;;;;;4972905;28;20571;-64
2021/12/03 03:30:18;;;;;;;6.37;3.80;;;1.80;99.90;;;;;;4972856;28;20588;-64
2021/12/03 03:32:46;;;;;;;7.70;4.13;;;1.80;99.90;;;;;;4973236;28;20204;-64
2021/12/03 03:35:13;;;;;;;6.20;3.93;;;1.80;99.90;;;;;;4973041;28;20244;-64
2021/12/03 03:37:41;;;;;;;5.60;3.83;;;1.80;99.90;;;;;;4973510;28;20737;-63
2021/12/03 03:40:11;;;;;;;8.63;4.63;;;1.90;99.90;;;;;;4973016;28;20231;-63
2021/12/03 03:42:38;;;;;;;7.80;4.17;;;1.90;99.90;;;;;;4973583;28;20232;-64
2021/12/03 03:45:09;;;;;;;7.80;3.70;;;1.90;99.90;;;;;;4972560;28;20319;-63
2021/12/03 03:47:38;;;;;;;7.33;3.87;;;1.90;99.90;;;;;;4969798;28;20271;-63
2021/12/03 03:50:07;;;;;;;7.77;4.07;;;2.00;99.90;;;;;;4972131;28;20323;-65
2021/12/03 03:52:36;;;;;;;7.17;4.17;;;1.90;99.90;;;;;;4972628;28;20272;-63
2021/12/03 03:55:03;;;;;;;7.47;4.10;;;1.80;99.90;;;;;;4972762;28;20212;-63
2021/12/03 03:57:30;;;;;;;7.23;4.30;;;1.80;99.90;;;;;;4972066;28;20351;-62
2021/12/03 03:59:57;;;;;;;5.87;3.90;;;1.80;99.90;;;;;;4971853;28;20244;-62
2021/12/03 04:02:24;;;;;;;5.20;3.73;;;1.80;99.90;;;;;;4973195;28;20295;-63
2021/12/03 04:04:53;;;;;;;6.87;4.10;;;1.80;99.90;;;;;;4972396;28;20300;-64
2021/12/03 04:07:20;;;;;;;5.37;3.67;;;1.80;99.90;;;;;;4972938;28;20271;-64
2021/12/03 04:09:46;;;;;;;5.60;4.30;;;1.80;99.90;;;;;;4972980;28;20286;-64
2021/12/03 04:12:13;;;;;;;8.03;4.80;;;1.80;99.90;;;;;;4973071;28;20303;-63
2021/12/03 04:14:40;;;;;;;6.30;4.20;;;1.80;99.90;;;;;;4972752;28;20272;-62
2021/12/03 04:17:07;;;;;;;7.73;4.63;;;1.80;99.90;;;;;;4972631;28;20291;-63
2021/12/03 04:19:35;;;;;;;8.93;4.80;;;1.80;99.90;;;;;;4973252;28;20272;-63
2021/12/03 04:22:04;;;;;;;6.97;5.23;;;1.80;99.90;;;;;;4972215;28;20238;-64
2021/12/03 04:24:31;;;;;;;7.90;4.80;;;1.70;99.90;;;;;;4973116;28;20221;-63
2021/12/03 04:26:58;;;;;;;6.63;5.03;;;1.80;99.90;;;;;;4972556;28;20671;-65
2021/12/03 04:29:25;;;;;;;5.77;4.20;;;1.70;99.90;;;;;;4972599;28;20287;-64
2021/12/03 04:31:52;;;;;;;8.07;4.50;;;1.80;99.90;;;;;;4972730;28;20569;-63
2021/12/03 04:34:19;;;;;;;7.13;4.70;;;1.80;99.90;;;;;;4972616;28;20693;-64
2021/12/03 04:36:46;;;;;;;5.63;4.33;;;1.80;99.90;;;;;;4972181;28;20299;-63
2021/12/03 04:39:14;;;;;;;7.90;4.20;;;1.90;99.90;;;;;;4972096;28;20212;-63
2021/12/03 04:41:41;;;;;;;11.00;5.07;;;1.90;99.90;;;;;;4972583;28;20689;-62
2021/12/03 04:44:08;;;;;;;7.10;4.67;;;1.90;99.90;;;;;;4972737;28;20266;-64
2021/12/03 04:46:35;;;;;;;5.53;4.43;;;1.90;99.90;;;;;;4972617;28;20277;-62
2021/12/03 04:49:02;;;;;;;10.00;4.97;;;2.00;99.90;;;;;;4972063;28;20646;-63
2021/12/03 04:51:29;;;;;;;6.87;4.70;;;2.00;99.90;;;;;;4971857;28;20292;-64
2021/12/03 04:53:56;;;;;;;6.70;4.40;;;2.00;99.90;;;;;;4972246;28;20706;-63
2021/12/03 04:56:24;;;;;;;8.20;4.80;;;2.00;99.90;;;;;;4972489;28;20296;-63
2021/12/03 04:58:51;;;;;;;8.17;4.97;;;2.00;99.90;;;;;;4972944;28;20299;-63
2021/12/03 05:01:18;;;;;;;7.40;4.67;;;2.00;99.90;;;;;;4972638;28;20240;-63
2021/12/03 05:03:45;;;;;;;7.33;4.77;;;2.00;99.90;;;;;;4972145;28;20388;-63
2021/12/03 05:06:15;;;;;;;8.07;4.60;;;2.10;99.90;;;;;;4971914;28;20236;-62
2021/12/03 05:08:43;;;;;;;6.40;4.37;;;2.10;99.90;;;;;;4972553;28;20197;-63
2021/12/03 05:11:10;;;;;;;5.40;4.23;;;2.20;99.90;;;;;;4973580;28;20291;-62
2021/12/03 05:13:39;;;;;;;6.90;4.63;;;2.20;99.90;;;;;;4975861;28;20296;-63
2021/12/03 05:16:06;;;;;;;6.07;4.70;;;2.20;99.90;;;;;;4973824;28;20200;-63
2021/12/03 05:18:34;;;;;;;6.33;4.23;;;2.20;99.90;;;;;;4975214;28;20304;-62
2021/12/03 05:21:02;;;;;;;5.43;4.40;;;2.30;99.90;;;;;;4975309;28;20641;-63
2021/12/03 05:23:31;;;;;;;7.37;5.00;;;2.30;99.90;;;;;;4974633;28;20637;-63
2021/12/03 05:25:58;;;;;;;5.93;5.17;;;2.30;99.90;;;;;;4975533;28;20244;-63
2021/12/03 05:28:26;;;;;;;7.93;4.60;;;2.30;99.90;;;;;;4975985;28;20654;-63
2021/12/03 05:30:55;;;;;;;5.80;4.60;;;2.30;99.90;;;;;;4975910;28;20722;-63
2021/12/03 05:33:22;;;;;;;8.93;4.43;;;2.30;99.90;;;;;;4974811;28;20635;-63
2021/12/03 05:35:49;;;;;;;10.03;4.70;;;2.30;99.90;;;;;;4975343;28;20216;-63
2021/12/03 05:38:17;;;;;;;5.47;4.70;;;2.30;99.90;;;;;;4975874;28;20709;-64
2021/12/03 05:40:44;;;;;;;6.33;4.23;;;2.20;99.90;;;;;;4974816;28;20658;-64
2021/12/03 05:43:11;;;;;;;6.13;4.27;;;2.20;99.90;;;;;;4975702;28;20315;-64
2021/12/03 05:45:38;;;;;;;5.23;3.97;;;2.30;99.90;;;;;;4975029;28;20331;-64
2021/12/03 05:48:06;;;;;;;4.67;3.70;;;2.20;99.90;;;;;;4975113;28;20300;-63
2021/12/03 05:50:33;;;;;;;6.97;3.87;;;2.30;99.90;;;;;;4975814;28;20316;-63
2021/12/03 05:53:01;;;;;;;6.40;4.53;;;2.20;99.90;;;;;;4975364;28;20609;-63
2021/12/03 05:55:28;;;;;;;5.73;4.13;;;2.20;99.90;;;;;;4974577;28;20213;-63
2021/12/03 05:57:55;;;;;;;5.43;3.90;;;2.20;99.90;;;;;;4974571;28;20292;-64
2021/12/03 06:00:26;;;;;;;12.27;4.60;;;2.20;99.90;;;;;;4974766;28;20240;-63
2021/12/03 06:02:55;;;;;;;7.30;4.77;;;2.20;99.90;;;;;;4974167;28;20272;-64
2021/12/03 06:05:26;;;;;;;6.03;4.60;;;2.20;99.90;;;;;;4974325;28;20220;-62
2021/12/03 06:07:53;;;;;;;5.37;3.97;;;2.20;99.90;;;;;;4974471;28;20232;-63
2021/12/03 06:10:20;;;;;;;4.47;3.90;;;2.20;99.90;;;;;;4974813;28;20315;-62
2021/12/03 06:12:48;;;;;;;4.70;3.57;;;2.20;99.90;;;;;;4975006;28;20200;-63
2021/12/03 06:15:17;;;;;;;5.23;3.73;;;2.10;99.90;;;;;;4974316;28;20716;-63
2021/12/03 06:17:44;;;;;;;4.13;3.23;;;2.20;99.90;;;;;;4974192;28;20251;-62
2021/12/03 06:20:12;;;;;;;4.00;3.20;;;2.10;99.90;;;;;;4974520;28;20233;-62
2021/12/03 06:22:41;;;;;;;3.27;2.57;;;2.10;99.90;;;;;;4965166;28;20723;-63
2021/12/03 06:25:10;;;;;;;3.87;2.97;;;2.00;99.90;;;;;;4974288;28;20650;-63
2021/12/03 06:27:38;;;;;;;3.00;2.60;;;1.90;99.90;;;;;;4973692;28;20244;-63
2021/12/03 06:30:07;;;;;;;3.50;2.50;;;1.90;99.90;;;;;;4973943;28;20349;-63
2021/12/03 06:32:34;;;;;;;5.10;2.60;;;1.80;99.90;;;;;;4974302;28;20209;-64
2021/12/03 06:35:01;;;;;;;2.47;2.20;;;1.80;99.90;;;;;;4973793;28;20608;-64
2021/12/03 06:37:27;;;;;;;2.93;2.63;;;1.80;99.90;;;;;;4974472;28;20280;-63
2021/12/03 06:39:56;;;;;;;2.87;2.57;;;1.70;99.90;;;;;;4973934;28;20638;-64
2021/12/03 06:42:23;;;;;;;3.57;2.43;;;1.60;99.90;;;;;;4972776;28;20258;-64
2021/12/03 06:44:49;;;;;;;4.73;2.63;;;1.60;99.90;;;;;;4972491;28;20279;-64
2021/12/03 06:47:16;;;;;;;3.83;2.70;;;1.60;99.90;;;;;;4972866;28;20568;-64
2021/12/03 06:49:43;;;;;;;4.97;2.77;;;1.60;99.90;;;;;;4972835;28;20239;-64
2021/12/03 06:52:14;;;;;;;5.20;3.10;;;1.60;99.90;;;;;;4972399;28;20300;-64
2021/12/03 06:54:41;;;;;;;6.80;3.00;;;1.50;99.90;;;;;;4972238;28;20272;-64
2021/12/03 06:57:10;;;;;;;4.47;3.40;;;1.50;99.90;;;;;;4972975;28;20604;-64
2021/12/03 06:59:37;;;;;;;6.00;3.43;;;1.50;99.90;;;;;;4972433;28;20209;-63
2021/12/03 07:02:05;;;;;;;6.43;3.60;;;1.60;99.90;;;;;;4971995;28;20196;-65
2021/12/03 07:04:32;;;;;;;4.33;3.60;;;1.60;99.90;;;;;;4973018;28;20612;-64
2021/12/03 07:06:59;;;;;;;4.90;3.73;;;1.60;99.90;;;;;;4973191;28;20246;-65
2021/12/03 07:09:26;;;;;;;6.60;3.87;;;1.60;99.90;;;;;;4973614;28;20324;-66
2021/12/03 07:11:53;;;;;;;7.73;4.00;;;1.60;99.90;;;;;;4972991;28;20765;-65
2021/12/03 07:14:21;;;;;;;4.53;3.90;;;1.50;99.90;;;;;;4970828;28;20236;-64
2021/12/03 07:16:48;;;;;;;5.20;4.00;;;1.50;99.90;;;;;;4970428;28;20701;-65
2021/12/03 07:19:15;;;;;;;4.13;3.73;;;1.50;99.90;;;;;;4972187;28;20229;-63
2021/12/03 07:21:42;;;;;;;5.67;3.80;;;1.50;99.90;;;;;;4972581;28;20291;-64
2021/12/03 07:24:09;;;;;;;5.87;3.50;;;1.50;99.90;;;;;;4972320;28;20650;-64
2021/12/03 07:26:36;;;;;;;5.37;3.30;;;1.50;99.90;;;;;;4971241;28;20233;-65
2021/12/03 07:29:04;;;;;;;4.53;4.03;;;1.50;99.90;;;;;;4970063;28;20267;-64
2021/12/03 07:31:32;;;;;;;8.53;3.87;;;1.50;99.90;;;;;;4970993;28;20562;-67
2021/12/03 07:34:00;;;;;;;6.00;4.17;;;1.50;99.90;;;;;;4969905;28;20662;-66
2021/12/03 07:36:27;;;;;;;6.90;5.00;;;1.50;99.90;;;;;;4972676;28;20315;-68
2021/12/03 07:38:54;;;;;;;4.37;3.93;;;1.60;99.90;;;;;;4972551;28;20576;-67
2021/12/03 07:41:21;;;;;;;6.30;4.83;;;1.60;99.90;;;;;;4972303;28;20205;-67
2021/12/03 07:43:48;;;;;;;7.93;4.80;;;1.60;99.90;;;;;;4972020;28;20205;-67
2021/12/03 07:46:16;;;;;;;5.13;4.07;;;1.70;99.90;;;;;;4972644;28;20275;-67
2021/12/03 07:48:46;;;;;;;5.33;4.50;;;1.70;99.90;;;;;;4971355;28;20204;-66
2021/12/03 07:51:14;;;;;;;6.93;4.30;;;1.70;99.90;;;;;;4969089;28;20299;-64
2021/12/03 07:53:41;;;;;;;7.03;4.83;;;1.70;99.90;;;;;;4971048;28;20327;-65
2021/12/03 07:56:09;;;;;;;5.70;5.07;;;1.80;99.90;;;;;;4972151;28;20256;-65
2021/12/03 07:58:36;;;;;;;6.97;4.57;;;1.90;99.90;;;;;;4971719;28;20219;-65
2021/12/03 08:01:04;;;;;;;6.03;4.67;;;2.00;99.90;;;;;;4972576;28;20204;-67
2021/12/03 08:03:31;;;;;;;5.47;4.10;;;2.10;99.90;;;;;;4973167;28;20247;-65
2021/12/03 08:06:05;;;;;;;4.57;4.17;;;2.10;99.90;;;;;;4971819;28;20255;-66
2021/12/03 08:08:32;;;;;;;8.87;4.37;;;2.20;99.90;;;;;;4968279;28;20543;-65
2021/12/03 08:10:59;;;;;;;4.00;3.60;;;2.30;99.90;;;;;;4972299;28;20630;-65
2021/12/03 08:13:26;;;;;;;3.70;2.90;;;2.50;99.90;;;;;;4971259;28;20239;-64
2021/12/03 08:15:53;;;;;;;3.77;3.47;;;2.70;99.90;;;;;;4970445;28;20360;-65
2021/12/03 08:18:21;;;;;;;4.00;3.20;;;2.80;99.90;;;;;;4971752;28;20265;-68
2021/12/03 08:20:48;;;;;;;4.67;3.10;;;2.80;99.90;;;;;;4972672;28;20205;-68
2021/12/03 08:23:17;;;;;;;4.77;3.10;;;3.00;99.90;;;;;;4966993;28;20243;-70
2021/12/03 08:25:44;;;;;;;6.50;3.60;;;3.20;99.90;;;;;;4973635;28;20217;-69
2021/12/03 08:28:11;;;;;;;5.97;3.53;;;3.30;99.90;;;;;;4973014;28;20251;-67
2021/12/03 08:30:39;;;;;;;3.73;2.83;;;3.50;99.90;;;;;;4972175;28;20307;-69
2021/12/03 08:33:05;;;;;;;4.43;2.97;;;3.90;99.90;;;;;;4974222;28;20200;-68
2021/12/03 08:35:34;;;;;;;3.83;2.93;;;4.30;99.90;;;;;;4971868;28;20228;-67
2021/12/03 08:38:01;;;;;;;6.93;2.90;;;4.70;99.90;;;;;;4972946;28;20212;-67
2021/12/03 08:40:29;;;;;;;4.83;2.73;;;5.00;99.90;;;;;;4972572;28;20216;-65
2021/12/03 08:42:56;;;;;;;5.20;2.47;;;5.30;99.90;;;;;;4972793;28;20216;-67
2021/12/03 08:45:24;;;;;;;3.37;2.30;;;6.60;99.90;;;;;;4971992;28;20272;-66
2021/12/03 08:47:54;;;;;;;3.10;2.67;;;8.00;99.90;;;;;;4975529;28;20220;-65
2021/12/03 08:50:29;;;;;;;4.40;2.33;;;9.70;99.90;;;;;;4975567;28;20213;-68
2021/12/03 08:53:16;;;;;;;5.40;2.67;;;11.70;94.00;;;;;;4974969;28;20245;-69
2021/12/03 08:55:45;;;;;;;1.87;1.77;;;13.60;81.60;;;;;;4975839;28;20851;-69
2021/12/03 08:58:13;;;;;;;2.63;2.00;;;15.30;65.10;;;;;;4976759;28;20204;-65
2021/12/03 09:00:41;;;;;;;3.07;2.30;;;16.40;56.70;;;;;;4979854;28;20647;-67
2021/12/03 09:03:08;;;;;;;3.07;2.47;;;16.30;54.50;;;;;;4972522;28;20209;-67
2021/12/03 09:05:37;;;;;;;2.60;2.20;;;16.80;52.10;;;;;;4964536;28;20280;-71
2021/12/03 09:08:04;;;;;;;4.57;2.43;;;17.40;50.50;;;;;;4972045;28;20209;-68
2021/12/03 09:10:32;;;;;;;4.20;2.27;;;18.40;49.00;;;;;;4968027;28;20209;-67
2021/12/03 09:13:00;;;;;;;2.77;2.17;;;19.50;47.70;;;;;;4973344;28;20296;-67
2021/12/03 09:15:32;;;;;;;5.77;1.97;;;20.60;43.70;;;;;;4973584;28;20248;-68
2021/12/03 09:18:16;;;;;;;4.85;2.67;;;21.40;42.20;;;;;;4974377;28;20208;-69
2021/12/03 09:20:50;;;;;;;7.60;2.42;;;22.30;40.50;;;;;;4974288;28;20208;-72
2021/12/03 09:23:22;;;;;;;3.25;2.10;;;22.90;38.90;;;;;;4976029;28;20223;-69
2021/12/03 09:25:53;;;;;;;4.07;2.70;;;23.40;37.50;;;;;;4975514;28;20319;-67
2021/12/03 09:28:26;;;;;;;4.80;2.30;;;23.60;36.70;;;;;;4974759;28;20212;-69
2021/12/03 09:30:53;;;;;;;4.72;2.10;;;23.90;35.90;;;;;;4973251;28;20294;-69
2021/12/03 09:33:23;;;;;;;5.65;2.33;;;24.30;35.70;;;;;;4969841;28;20248;-67
2021/12/03 09:35:54;;;;;;;4.97;2.50;;;24.90;34.60;;;;;;4972927;28;20205;-64
2021/12/03 09:38:22;;;;;;;5.03;3.00;;;25.50;33.50;;;;;;4970827;28;20329;-66
2021/12/03 09:40:48;;;;;;;5.97;2.25;;;25.80;32.80;;;;;;4966067;28;20213;-66
2021/12/03 09:43:15;;;;;;;4.90;2.75;;;26.50;32.50;;;;;;4972992;28;20240;-66
2021/12/03 09:45:53;;;;;;;4.28;2.75;;;26.20;30.40;;;;;;4970998;28;20295;-67
2021/12/03 09:48:33;;;;;;;2.80;2.50;;;26.10;31.40;;;;;;4975142;28;20208;-66
2021/12/03 09:51:00;;;;;;;4.97;2.90;;;25.90;31.80;;;;;;4974993;28;20312;-68
2021/12/03 09:53:43;;;;;;;4.45;3.13;;;23.80;30.60;;;;;;4975269;28;20266;-65
2021/12/03 09:56:12;;;;;;;5.55;3.63;;;23.80;31.00;;;;;;4975594;28;20311;-67
2021/12/03 09:59:08;;;;;;;4.38;3.05;;;22.90;32.70;;;;;;4976751;28;20654;-66
2021/12/03 10:01:38;;;;;;;8.20;3.08;;;22.20;32.00;;;;;;4976027;28;20208;-66
2021/12/03 10:04:25;;;;;;;5.15;2.80;;;21.30;33.20;;;;;;4975733;28;20220;-68
2021/12/03 10:12:46;;;;;;;8.17;2.90;;;16.70;35.70;;;;;;4947550;28;20240;-66
2021/12/03 10:15:16;;;;;;;3.57;2.70;;;15.30;37.90;;;;;;4973779;28;20259;-66
2021/12/03 10:18:05;;;;;;;7.20;3.13;;;14.00;39.20;;;;;;4970658;28;20259;-66
2021/12/03 10:20:38;;;;;;;5.20;3.00;;;12.80;40.70;;;;;;4970544;28;20302;-66
2021/12/03 10:35:26;;;;;;;4.73;2.73;;;12.70;47.10;;;;;;4964800;28;20212;-64
2021/12/03 10:41:02;;;;;;;4.33;2.53;;;14.40;43.90;;;;;;4972047;28;20295;-64
2021/12/03 10:43:47;;;;;;;3.47;2.30;;;15.70;48.20;;;;;;4960877;28;20209;-64
2021/12/03 10:46:31;;;;;;;6.70;2.77;;;18.10;41.50;;;;;;4971414;28;20240;-64
2021/12/03 10:49:09;;;;;;;6.03;2.30;;;20.40;39.50;;;;;;4970001;28;20212;-64
2021/12/03 10:51:48;;;;;;;4.23;2.60;;;21.80;35.90;;;;;;4972028;28;20311;-65
2021/12/03 10:54:41;;;;;;;3.55;2.70;;;21.90;34.50;;;;;;4971666;28;20477;-65
2021/12/03 10:57:38;;;;;;;5.07;2.50;;;21.40;34.60;;;;;;4973228;28;20236;-65
2021/12/03 14:40:17;;;;;;;7.40;3.50;;;3.20;99.90;;;;;;5037759;28;20217;-65
2021/12/03 14:48:37;;;;;;;11.30;4.73;;;3.30;99.90;;;;;;5068174;28;20278;-64
2021/12/03 14:54:31;;;;;;;7.87;4.63;;;3.30;99.90;;;;;;5072853;28;20215;-65
2021/12/03 14:57:15;;;;;;;6.47;4.00;;;3.30;99.90;;;;;;5069835;28;20607;-65
2021/12/03 14:59:52;;;;;;;12.17;4.40;;;3.30;99.90;;;;;;5064491;28;21532;-66
2021/12/03 15:02:31;;;;;;;6.90;4.37;;;3.30;99.90;;;;;;5067056;28;20338;-65
2021/12/03 15:05:07;;;;;;;9.33;4.47;;;3.30;99.90;;;;;;5071380;28;20197;-65
2021/12/03 15:07:42;;;;;;;9.13;3.90;;;3.30;99.90;;;;;;5064078;28;20217;-64
2021/12/03 15:10:16;;;;;;;9.00;3.70;;;3.30;99.90;;;;;;5067094;28;20193;-65
2021/12/03 15:13:09;;;;;;;8.20;3.93;;;3.30;99.90;;;;;;5072023;28;20205;-65
2021/12/03 15:21:25;;;;;;;8.10;3.40;;;3.20;99.90;;;;;;5070498;28;20232;-65
2021/12/03 15:30:00;;;;;;;7.77;3.20;;;3.20;99.90;;;;;;5067725;28;20457;-66
2021/12/03 15:32:36;;;;;;;9.23;4.23;;;3.10;99.90;;;;;;5071209;28;20212;-64
2021/12/03 15:35:09;;;;;;;10.93;3.93;;;3.10;99.90;;;;;;5067047;28;20245;-64
2021/12/03 15:37:55;;;;;;;7.07;4.10;;;3.10;99.90;;;;;;5069849;28;20294;-63
2021/12/03 15:40:39;;;;;;;8.80;4.07;;;3.10;99.90;;;;;;5070482;28;20240;-64
2021/12/03 15:57:30;;;;;;;6.80;3.83;;;3.10;99.90;;;;;;5068019;28;20213;-65
2021/12/03 16:05:58;;;;;;;6.57;3.87;;;3.20;99.90;;;;;;5063790;28;20261;-67
2021/12/03 16:08:27;;;;;;;11.10;4.00;;;3.20;99.90;;;;;;5066893;28;20292;-66
2021/12/03 16:11:03;;;;;;;6.67;3.87;;;3.20;99.90;;;;;;5063822;28;20339;-66
2021/12/03 16:13:42;;;;;;;8.50;4.00;;;3.20;99.90;;;;;;5061175;28;20225;-65
2021/12/03 16:16:38;;;;;;;8.63;3.93;;;3.20;99.90;;;;;;5064917;28;20740;-66
2021/12/03 16:22:03;;;;;;;14.17;4.17;;;3.30;99.90;;;;;;5071784;28;20320;-66
2021/12/03 16:25:01;;;;;;;10.17;3.90;;;3.30;99.90;;;;;;5070121;28;20209;-65
2021/12/03 16:30:56;;;;;;;6.17;3.57;;;3.30;99.90;;;;;;5064938;28;20204;-66
2021/12/03 16:44:25;;;;;;;6.83;3.87;;;3.30;99.90;;;;;;5066201;28;20728;-66
2021/12/03 16:46:58;;;;;;;7.63;4.07;;;3.30;99.90;;;;;;5063931;28;20707;-67
2021/12/03 16:52:28;;;;;;;9.83;3.93;;;3.30;99.90;;;;;;4993184;28;20216;-67
2021/12/03 16:54:56;;;;;;;7.07;3.43;;;3.30;99.90;;;;;;5048513;28;20221;-67
2021/12/03 16:57:28;;;;;;;7.07;3.43;;;3.40;99.90;;;;;;5075029;28;20801;-67
2021/12/03 16:59:56;;;;;;;7.33;4.07;;;3.50;99.90;;;;;;5070045;28;20308;-67
2021/12/03 17:02:30;;;;;;;12.90;4.23;;;3.50;99.90;;;;;;5064795;28;20253;-65
2021/12/03 17:05:13;;;;;;;14.10;3.97;;;3.40;99.90;;;;;;5070108;28;20316;-66
2021/12/03 17:46:45;;;;;;;7.97;3.83;;;3.40;99.90;;;;;;5061860;28;20243;-65
2021/12/03 17:49:30;;;;;;;8.27;3.93;;;3.40;99.90;;;;;;5113382;28;20616;-67
2021/12/03 17:52:10;;;;;;;7.57;3.90;;;3.30;99.90;;;;;;5106885;28;20599;-68
2021/12/03 17:54:56;;;;;;;5.60;3.47;;;3.30;99.90;;;;;;5102388;28;20455;-68
2021/12/03 17:57:31;;;;;;;9.47;4.17;;;3.30;99.90;;;;;;5101362;28;20248;-67
2021/12/03 18:00:03;;;;;;;8.20;3.53;;;3.30;99.90;;;;;;5109626;28;20199;-66
2021/12/03 18:02:33;;;;;;;6.07;3.20;;;3.20;99.90;;;;;;5108930;28;20564;-68
2021/12/03 18:05:20;;;;;;;9.07;3.60;;;3.20;99.90;;;;;;5109796;28;20238;-68
2021/12/03 18:07:56;;;;;;;7.93;3.80;;;3.10;99.90;;;;;;5110409;28;20200;-68
2021/12/03 18:10:36;;;;;;;12.90;4.20;;;3.10;99.90;;;;;;5109430;28;20200;-68
2021/12/03 18:46:23;;;;;;;7.40;4.20;;;2.90;99.90;;;;;;5087486;28;20224;-67
2021/12/03 18:49:01;;;;;;;13.10;4.73;;;2.80;99.90;;;;;;5091550;28;20291;-66
2021/12/03 18:51:34;;;;;;;12.03;5.10;;;2.80;99.90;;;;;;5091201;28;20207;-66
2021/12/03 18:56:55;;;;;;;11.53;5.73;;;2.90;99.90;;;;;;5090710;28;20221;-65
2021/12/03 18:59:24;;;;;;;12.73;6.53;;;2.90;99.90;;;;;;5096513;28;20262;-66
2021/12/03 19:01:52;;;;;;;13.33;6.83;;;2.90;99.90;;;;;;5087157;28;20693;-65
2021/12/03 19:04:25;;;;;;;14.43;7.20;;;2.90;99.90;;;;;;5087244;28;20220;-66
2021/12/03 19:06:57;;;;;;;20.03;7.13;;;2.90;99.90;;;;;;5081923;28;20228;-66
2021/12/03 19:09:25;;;;;;;13.33;6.90;;;3.00;99.90;;;;;;5082515;28;20379;-66
2021/12/03 19:12:00;;;;;;;14.10;7.07;;;3.00;99.90;;;;;;5086012;28;20211;-65
2021/12/03 19:14:32;;;;;;;14.03;6.83;;;3.00;99.90;;;;;;5083892;28;20210;-66
2021/12/03 19:16:59;;;;;;;13.60;7.40;;;3.00;99.90;;;;;;5082684;28;20619;-65
2021/12/03 19:19:30;;;;;;;15.47;7.67;;;3.00;99.90;;;;;;5083783;28;20675;-65
2021/12/03 19:21:59;;;;;;;12.07;6.37;;;3.00;99.90;;;;;;5085671;28;20656;-66
2021/12/03 19:24:28;;;;;;;13.90;6.87;;;3.00;99.90;;;;;;5080170;28;20289;-65
2021/12/03 19:26:55;;;;;;;13.80;7.30;;;3.00;99.90;;;;;;5082790;28;20252;-66